sim
Sign-in with your pilot id or email,
or register
Callsign
Passwort

Schedule Details

Flight Number: RYR18
Departure: Athens Eleftherios Venizelos (LGAV) at 06:35
Arrival: Thessaloniki International Airport (LGTS) at 07:35
Route: Ryanair Passenger Schedule. Enter filed route here before submitting Pirep.

Weather Information
Getting current METAR information for LGAV 211720Z 01006KT CAVOK 27/12 Q1016 NOSIG
Getting current METAR information for LGTS 211720Z 17006KT CAVOK 30/12 Q1016 NOSIG

Schedule Frequency

Route Map